createdAt,value
2023-02-04T00:01:29.407Z,99501.69
2023-02-04T00:03:56.901Z,99501.94
2023-02-04T00:06:26.046Z,99497.53
2023-02-04T00:08:53.668Z,99494.41
2023-02-04T00:11:21.169Z,99495.44
2023-02-04T00:13:48.982Z,99485.59
2023-02-04T00:16:17.165Z,99484.59
2023-02-04T00:18:44.673Z,99485.09
2023-02-04T00:21:12.284Z,99477.09
2023-02-04T00:23:39.929Z,99475.78
2023-02-04T00:26:07.445Z,99469.81
2023-02-04T00:28:34.996Z,99466.72
2023-02-04T00:31:05.198Z,99471.91
2023-02-04T00:33:33.781Z,99471.13
2023-02-04T00:36:01.312Z,99465.16
2023-02-04T00:38:28.714Z,99464.66
2023-02-04T00:40:56.263Z,99455.81
2023-02-04T00:43:23.731Z,99457.66
2023-02-04T00:45:51.274Z,99459.72
2023-02-04T00:48:18.746Z,99448.56
2023-02-04T00:50:47.664Z,99461.03
2023-02-04T00:53:15.173Z,99451.69
2023-02-04T00:55:42.662Z,99448.59
2023-02-04T00:58:10.428Z,99452.47
2023-02-04T01:00:37.873Z,99443.38
2023-02-04T01:03:05.409Z,99442.84
2023-02-04T01:05:35.386Z,99434.06
2023-02-04T01:08:02.877Z,99433.78
2023-02-04T01:10:30.903Z,99428.59
2023-02-04T01:12:58.963Z,99418.69
2023-02-04T01:15:27.745Z,99418.59
2023-02-04T01:17:55.224Z,99413.28
2023-02-04T01:20:22.825Z,99402.69
2023-02-04T01:22:50.434Z,99400.91
2023-02-04T01:25:18.100Z,99386.41
2023-02-04T01:27:46.325Z,99379.66
2023-02-04T01:30:16.120Z,99378.38
2023-02-04T01:32:43.743Z,99380.94
2023-02-04T01:35:11.439Z,99377.06
2023-02-04T01:37:39.318Z,99371.19
2023-02-04T01:40:08.043Z,99369.50
2023-02-04T01:42:35.749Z,99363.94
2023-02-04T01:45:06.461Z,99361.63
2023-02-04T01:47:35.772Z,99357.94
2023-02-04T01:50:04.070Z,99348.50
2023-02-04T01:52:38.284Z,99337.59
2023-02-04T01:55:15.816Z,99335.63
2023-02-04T01:57:45.133Z,99323.59
2023-02-04T02:00:24.643Z,99315.91
2023-02-04T02:02:54.466Z,99308.06
2023-02-04T02:05:30.594Z,99309.97
2023-02-04T02:08:01.955Z,99309.00
2023-02-04T02:10:30.429Z,99302.56
2023-02-04T02:12:59.156Z,99293.56
2023-02-04T02:15:26.916Z,99287.19
2023-02-04T02:17:56.424Z,99276.97
2023-02-04T02:20:26.890Z,99281.00
2023-02-04T02:23:37.359Z,99283.19
2023-02-04T02:26:04.919Z,99284.25
2023-02-04T02:28:32.478Z,99282.41
2023-02-04T02:30:59.981Z,99276.44
2023-02-04T02:33:27.637Z,99278.81
2023-02-04T02:35:55.135Z,99276.66
2023-02-04T02:38:25.507Z,99265.25
2023-02-04T02:40:53.662Z,99261.66
2023-02-04T02:43:25.809Z,99268.63
2023-02-04T02:45:56.182Z,99278.03
2023-02-04T02:48:24.272Z,99268.25
2023-02-04T02:50:51.929Z,99264.91
2023-02-04T02:53:22.048Z,99260.56
2023-02-04T02:55:50.587Z,99258.34
2023-02-04T02:58:29.186Z,99259.78
2023-02-04T03:00:58.297Z,99247.69
2023-02-04T03:03:50.036Z,99247.63
2023-02-04T03:06:23.378Z,99234.50
2023-02-04T03:08:55.269Z,99234.72
2023-02-04T03:11:23.510Z,99225.94
2023-02-04T03:13:52.193Z,99223.63
2023-02-04T03:16:20.573Z,99220.28
2023-02-04T03:18:48.877Z,99216.66
2023-02-04T03:21:16.563Z,99215.09
2023-02-04T03:23:44.406Z,99208.91
2023-02-04T03:26:11.911Z,99208.84
2023-02-04T03:28:43.635Z,99207.75
2023-02-04T03:31:11.252Z,99196.13
2023-02-04T03:33:38.788Z,99201.88
2023-02-04T03:36:06.815Z,99198.50
2023-02-04T03:38:34.511Z,99196.69
2023-02-04T03:41:02.873Z,99191.22
2023-02-04T03:43:31.575Z,99185.06
2023-02-04T03:45:59.845Z,99176.53
2023-02-04T03:48:27.346Z,99184.28
2023-02-04T03:50:54.843Z,99179.91
2023-02-04T03:53:22.417Z,99172.44
2023-02-04T03:55:49.870Z,99172.50
2023-02-04T03:58:17.430Z,99160.72
2023-02-04T04:00:44.923Z,99156.78
2023-02-04T04:03:12.345Z,99163.06
2023-02-04T04:05:39.861Z,99156.72
2023-02-04T04:08:07.428Z,99146.13
2023-02-04T04:10:35.059Z,99139.78
2023-02-04T04:13:02.737Z,99149.28
2023-02-04T04:15:30.810Z,99130.09
2023-02-04T04:17:58.301Z,99130.56
2023-02-04T04:20:27.190Z,99131.88
2023-02-04T04:22:54.725Z,99127.22
2023-02-04T04:25:22.188Z,99120.81
2023-02-04T04:27:49.724Z,99124.38
2023-02-04T04:30:17.726Z,99125.50
2023-02-04T04:32:45.269Z,99120.41
2023-02-04T04:35:12.705Z,99137.56
2023-02-04T04:37:40.195Z,99139.97
2023-02-04T04:40:09.294Z,99138.13
2023-02-04T04:42:36.788Z,99135.06
2023-02-04T04:45:08.065Z,99120.28
2023-02-04T04:47:35.648Z,99121.56
2023-02-04T04:50:03.476Z,99131.50
2023-02-04T04:52:30.961Z,99132.31
2023-02-04T04:54:58.440Z,99126.34
2023-02-04T04:57:25.936Z,99132.84
2023-02-04T04:59:53.375Z,99119.63
2023-02-04T05:02:20.832Z,99121.47
2023-02-04T05:04:48.360Z,99111.91
2023-02-04T05:07:15.991Z,99112.47
2023-02-04T05:09:43.434Z,99116.84
2023-02-04T05:12:11.017Z,99104.69
2023-02-04T05:14:38.820Z,99109.88
2023-02-04T05:17:06.333Z,99108.03
2023-02-04T05:19:33.733Z,99110.34
2023-02-04T05:22:01.932Z,99102.38
2023-02-04T05:24:29.483Z,99103.41
2023-02-04T05:26:57.247Z,99108.03
2023-02-04T05:29:24.773Z,99107.47
2023-02-04T05:31:52.401Z,99112.63
2023-02-04T05:34:19.978Z,99107.72
2023-02-04T05:36:47.478Z,99101.47
2023-02-04T05:39:15.161Z,99105.38
2023-02-04T05:41:42.577Z,99107.16
2023-02-04T05:44:10.095Z,99109.03
2023-02-04T05:46:38.580Z,99106.34
2023-02-04T05:49:07.613Z,99106.09
2023-02-04T05:51:35.338Z,99107.38
2023-02-04T05:54:03.959Z,99106.84
2023-02-04T05:56:31.459Z,99111.66
2023-02-04T05:58:58.877Z,99111.19
2023-02-04T06:01:26.401Z,99100.13
2023-02-04T06:03:53.869Z,99101.44
2023-02-04T06:06:21.406Z,99092.59
2023-02-04T06:08:48.888Z,99098.84
2023-02-04T06:11:16.822Z,99096.75
2023-02-04T06:13:44.212Z,99100.38
2023-02-04T06:16:12.254Z,99105.03
2023-02-04T06:18:40.587Z,99103.50
2023-02-04T06:21:08.038Z,99103.75
2023-02-04T06:23:37.822Z,99104.47
2023-02-04T06:26:05.668Z,99102.38
2023-02-04T06:28:33.330Z,99095.59
2023-02-04T06:31:00.962Z,99102.25
2023-02-04T06:33:28.561Z,99109.06
2023-02-04T06:35:56.270Z,99103.84
2023-02-04T06:38:23.768Z,99106.97
2023-02-04T06:40:53.855Z,99117.84
2023-02-04T06:43:22.514Z,99115.03
2023-02-04T06:45:51.153Z,99120.97
2023-02-04T06:48:19.001Z,99117.34
2023-02-04T06:50:46.630Z,99117.09
2023-02-04T06:53:14.102Z,99123.56
2023-02-04T06:55:41.562Z,99130.53
2023-02-04T06:58:09.770Z,99122.00
2023-02-04T07:00:37.289Z,99116.28
2023-02-04T07:03:05.021Z,99113.69
2023-02-04T07:05:32.530Z,99119.13
2023-02-04T07:08:00.991Z,99122.97
2023-02-04T07:10:28.529Z,99130.75
2023-02-04T07:12:56.012Z,99137.06
2023-02-04T07:15:23.561Z,99131.84
2023-02-04T07:17:51.292Z,99126.28
2023-02-04T07:20:19.172Z,99138.81
2023-02-04T07:22:46.642Z,99134.00
2023-02-04T07:25:16.084Z,99143.34
2023-02-04T07:27:45.241Z,99152.22
2023-02-04T07:30:13.409Z,99140.97
2023-02-04T07:32:40.937Z,99136.81
2023-02-04T07:35:12.644Z,99125.34
2023-02-04T07:37:41.982Z,99127.78
2023-02-04T07:40:11.989Z,99128.63
2023-02-04T07:42:39.459Z,99122.78
2023-02-04T07:45:13.065Z,99119.19
2023-02-04T07:47:41.113Z,99115.91
2023-02-04T07:50:08.986Z,99105.63
2023-02-04T07:52:36.475Z,99105.00
2023-02-04T07:55:05.155Z,99093.69
2023-02-04T07:57:32.717Z,99095.84
2023-02-04T08:00:00.413Z,99095.09
2023-02-04T08:02:28.175Z,99094.22
2023-02-04T08:04:55.680Z,99083.72
2023-02-04T08:07:23.177Z,99083.69
2023-02-04T08:09:50.642Z,99078.47
2023-02-04T08:12:18.049Z,99067.47
2023-02-04T08:14:45.579Z,99070.78
2023-02-04T08:17:13.023Z,99075.03
2023-02-04T08:19:40.519Z,99066.00
2023-02-04T08:22:10.647Z,99058.69
2023-02-04T08:24:38.171Z,99055.56
2023-02-04T08:27:06.803Z,99063.22
2023-02-04T08:29:34.231Z,99049.03
2023-02-04T08:32:01.825Z,99056.31
2023-02-04T08:34:29.452Z,99040.66
2023-02-04T08:36:58.965Z,99038.06
2023-02-04T08:39:27.085Z,99029.94
2023-02-04T08:41:55.940Z,99031.94
2023-02-04T08:44:23.805Z,99031.78
2023-02-04T08:46:51.363Z,99034.78
2023-02-04T08:49:18.898Z,99025.09
2023-02-04T08:51:46.400Z,99038.00
2023-02-04T08:54:13.783Z,99015.28
2023-02-04T08:56:41.245Z,99033.28
2023-02-04T08:59:08.727Z,99028.53
2023-02-04T09:01:36.381Z,99032.84
2023-02-04T09:04:04.453Z,99029.03
2023-02-04T09:06:31.966Z,99020.88
2023-02-04T09:08:59.518Z,99015.31
2023-02-04T09:11:27.100Z,99028.25
2023-02-04T09:13:56.712Z,99028.41
2023-02-04T09:16:24.650Z,99029.31
2023-02-04T09:18:52.175Z,99032.53
2023-02-04T09:21:19.816Z,99021.28
2023-02-04T09:23:48.550Z,99023.00
2023-02-04T09:26:16.072Z,99026.06
2023-02-04T09:28:43.837Z,99019.31
2023-02-04T09:31:12.120Z,99015.75
2023-02-04T09:33:39.748Z,99024.41
2023-02-04T09:36:09.866Z,99005.00
2023-02-04T09:38:37.453Z,99007.19
2023-02-04T09:41:09.121Z,98995.16
2023-02-04T09:43:41.593Z,98995.75
2023-02-04T09:46:23.264Z,98987.91
2023-02-04T09:48:52.102Z,98982.06
2023-02-04T09:51:23.999Z,98985.00
2023-02-04T09:53:56.362Z,98990.22
2023-02-04T09:56:24.134Z,98980.06
2023-02-04T09:58:52.016Z,98978.66
2023-02-04T10:01:21.460Z,98976.22
2023-02-04T10:03:51.592Z,98967.44
2023-02-04T10:06:23.334Z,98965.59
2023-02-04T10:08:52.648Z,98961.22
2023-02-04T10:11:22.909Z,98958.63
2023-02-04T10:13:55.136Z,98958.69
2023-02-04T10:16:33.307Z,98951.84
2023-02-04T10:19:07.722Z,98944.78
2023-02-04T10:21:38.042Z,98939.53
2023-02-04T10:24:33.180Z,98940.78
2023-02-04T10:27:13.130Z,98931.59
2023-02-04T10:29:42.343Z,98932.28
2023-02-04T10:32:33.410Z,98925.38
2023-02-04T10:35:05.532Z,98923.97
2023-02-04T10:37:33.104Z,98917.94
2023-02-04T10:40:00.735Z,98911.81
2023-02-04T10:42:32.288Z,98905.16
2023-02-04T10:45:00.254Z,98902.84
2023-02-04T10:47:31.528Z,98893.00
2023-02-04T10:50:15.886Z,98885.91
2023-02-04T10:52:47.909Z,98888.88
2023-02-04T10:55:21.583Z,98881.91
2023-02-04T10:57:52.623Z,98899.38
2023-02-04T11:00:25.449Z,98881.47
2023-02-04T11:03:10.846Z,98877.16
2023-02-04T11:05:39.447Z,98876.31
2023-02-04T11:08:35.462Z,98862.09
2023-02-04T11:11:08.312Z,98867.50
2023-02-04T11:13:52.212Z,98860.06
2023-02-04T11:16:37.820Z,98859.59
2023-02-04T11:19:09.547Z,98838.00
2023-02-04T11:21:36.918Z,98842.41
2023-02-04T11:24:16.261Z,98842.22
2023-02-04T11:26:47.517Z,98838.19
2023-02-04T11:29:38.353Z,98839.94
2023-02-04T11:32:07.014Z,98837.00
2023-02-04T11:34:51.092Z,98830.03
2023-02-04T11:37:36.100Z,98828.38
2023-02-04T11:40:28.475Z,98823.72
2023-02-04T11:43:11.470Z,98829.38
2023-02-04T11:45:41.673Z,98827.19
2023-02-04T11:48:27.393Z,98818.97
2023-02-04T11:51:03.769Z,98809.25
2023-02-04T11:53:35.291Z,98829.38
2023-02-04T11:56:02.988Z,98820.84
2023-02-04T11:58:32.193Z,98825.09
2023-02-04T12:01:00.143Z,98814.22
2023-02-04T12:03:31.020Z,98808.75
2023-02-04T12:06:00.087Z,98812.97
2023-02-04T12:08:37.374Z,98810.91
2023-02-04T12:11:06.397Z,98810.78
2023-02-04T12:13:34.619Z,98811.13
2023-02-04T12:16:07.988Z,98809.56
2023-02-04T12:18:37.256Z,98804.16
2023-02-04T12:21:05.057Z,98834.63
2023-02-04T12:23:32.785Z,98812.97
2023-02-04T12:26:00.706Z,98818.78
2023-02-04T12:28:30.062Z,98811.00
2023-02-04T12:30:58.167Z,98813.41
2023-02-04T12:33:25.809Z,98810.31
2023-02-04T12:35:53.872Z,98806.22
2023-02-04T12:38:21.492Z,98819.56
2023-02-04T12:40:49.134Z,98819.63
2023-02-04T12:43:18.182Z,98813.34
2023-02-04T12:45:47.960Z,98801.09
2023-02-04T12:48:15.692Z,98813.44
2023-02-04T12:50:43.220Z,98817.72
2023-02-04T12:53:11.338Z,98805.97
2023-02-04T12:55:39.263Z,98809.00
2023-02-04T12:58:06.806Z,98812.41
2023-02-04T13:00:34.361Z,98812.31
2023-02-04T13:03:02.404Z,98812.25
2023-02-04T13:05:29.940Z,98820.63
2023-02-04T13:07:57.725Z,98816.41
2023-02-04T13:10:25.474Z,98816.81
2023-02-04T13:12:52.889Z,98819.84
2023-02-04T13:15:20.663Z,98826.34
2023-02-04T13:17:48.556Z,98836.09
2023-02-04T13:20:16.251Z,98841.22
2023-02-04T13:22:43.818Z,98833.19
2023-02-04T13:25:11.954Z,98837.34
2023-02-04T13:27:41.051Z,98849.13
2023-02-04T13:30:11.639Z,98850.66
2023-02-04T13:32:39.196Z,98843.75
2023-02-04T13:35:27.105Z,98847.53
2023-02-04T13:37:56.458Z,98838.78
2023-02-04T13:40:24.323Z,98847.44
2023-02-04T13:42:53.660Z,98855.66
2023-02-04T13:45:21.254Z,98847.88
2023-02-04T13:47:50.200Z,98859.25
2023-02-04T13:50:18.199Z,98852.66
2023-02-04T13:52:45.701Z,98844.84
2023-02-04T13:55:13.286Z,98859.78
2023-02-04T13:57:40.748Z,98860.53
2023-02-04T14:00:09.587Z,98854.81
2023-02-04T14:02:43.090Z,98860.25
2023-02-04T14:05:10.785Z,98860.84
2023-02-04T14:07:39.513Z,98866.41
2023-02-04T14:10:08.876Z,98858.72
2023-02-04T14:12:37.106Z,98866.13
2023-02-04T14:15:04.851Z,98873.13
2023-02-04T14:17:33.402Z,98877.56
2023-02-04T14:20:01.585Z,98885.44
2023-02-04T14:22:29.140Z,98892.81
2023-02-04T14:24:56.653Z,98891.59
2023-02-04T14:27:25.867Z,98898.69
2023-02-04T14:29:53.953Z,98894.88
2023-02-04T14:32:25.859Z,98891.94
2023-02-04T14:34:54.053Z,98903.78
2023-02-04T14:37:21.567Z,98903.28
2023-02-04T14:39:51.061Z,98924.06
2023-02-04T14:42:18.532Z,98903.75
2023-02-04T14:44:46.120Z,98910.97
2023-02-04T14:47:13.583Z,98908.94
2023-02-04T14:49:44.018Z,98912.00
2023-02-04T14:52:14.689Z,98905.88
2023-02-04T14:54:42.326Z,98914.34
2023-02-04T14:57:11.971Z,98919.56
2023-02-04T14:59:39.710Z,98920.03
2023-02-04T15:02:08.972Z,98919.06
2023-02-04T15:04:36.832Z,98928.13
2023-02-04T15:07:04.689Z,98934.22
2023-02-04T15:09:33.546Z,98946.47
2023-02-04T15:12:01.427Z,98943.22
2023-02-04T15:14:29.046Z,98949.03
2023-02-04T15:16:57.932Z,98955.03
2023-02-04T15:19:25.616Z,98954.66
2023-02-04T15:21:54.230Z,98958.31
2023-02-04T15:24:22.974Z,98963.91
2023-02-04T15:26:51.437Z,98961.78
2023-02-04T15:29:18.920Z,98968.75
2023-02-04T15:31:46.932Z,98970.59
2023-02-04T15:34:16.657Z,98971.38
2023-02-04T15:36:44.450Z,98976.19
2023-02-04T15:39:11.914Z,98976.53
2023-02-04T15:41:40.695Z,98973.72
2023-02-04T15:44:08.587Z,98989.91
2023-02-04T15:46:37.324Z,98980.22
2023-02-04T15:49:05.200Z,98982.47
2023-02-04T15:51:32.827Z,98982.63
2023-02-04T15:54:00.280Z,98985.44
2023-02-04T15:56:27.819Z,98994.56
2023-02-04T15:58:56.494Z,98999.84
2023-02-04T16:01:24.128Z,99004.13
2023-02-04T16:04:00.758Z,99004.97
2023-02-04T16:06:30.027Z,98998.75
2023-02-04T16:08:57.479Z,99012.25
2023-02-04T16:11:25.261Z,99008.09
2023-02-04T16:13:54.724Z,99010.56
2023-02-04T16:16:22.671Z,99019.28
2023-02-04T16:18:50.300Z,99021.75
2023-02-04T16:21:18.277Z,99021.94
2023-02-04T16:23:46.005Z,99025.84
2023-02-04T16:26:15.237Z,99031.78
2023-02-04T16:28:42.725Z,99041.25
2023-02-04T16:31:10.365Z,99046.06
2023-02-04T16:33:39.064Z,99051.03
2023-02-04T16:36:14.434Z,99053.13
2023-02-04T16:38:45.817Z,99059.47
2023-02-04T16:41:16.908Z,99062.09
2023-02-04T16:43:44.517Z,99068.75
2023-02-04T16:46:19.800Z,99072.50
2023-02-04T16:48:47.468Z,99063.53
2023-02-04T16:51:15.124Z,99072.72
2023-02-04T16:53:42.539Z,99074.66
2023-02-04T16:56:09.980Z,99071.34
2023-02-04T16:58:38.428Z,99073.09
2023-02-04T17:01:06.302Z,99081.69
2023-02-04T17:03:34.920Z,99092.22
2023-02-04T17:06:03.817Z,99103.59
2023-02-04T17:08:33.191Z,99111.34
2023-02-04T17:11:18.934Z,99116.16
2023-02-04T17:13:46.492Z,99119.34
2023-02-04T17:16:16.009Z,99113.72
2023-02-04T17:18:43.669Z,99118.72
2023-02-04T17:21:11.097Z,99127.47
2023-02-04T17:23:42.380Z,99120.75
2023-02-04T17:26:09.967Z,99119.97
2023-02-04T17:28:38.377Z,99131.16
2023-02-04T17:31:07.163Z,99125.41
2023-02-04T17:33:42.810Z,99127.34
2023-02-04T17:36:15.405Z,99135.97
2023-02-04T17:38:46.027Z,99138.94
2023-02-04T17:41:17.606Z,99135.66
2023-02-04T17:43:46.804Z,99133.00
2023-02-04T17:46:14.734Z,99143.97
2023-02-04T17:48:42.513Z,99139.19
2023-02-04T17:51:10.746Z,99149.97
2023-02-04T17:53:40.558Z,99139.94
2023-02-04T17:56:18.829Z,99135.47
2023-02-04T17:58:46.835Z,99137.59
2023-02-04T18:01:19.037Z,99141.00
2023-02-04T18:03:50.299Z,99147.59
2023-02-04T18:06:29.086Z,99148.03
2023-02-04T18:09:01.913Z,99145.03
2023-02-04T18:11:39.641Z,99145.78
2023-02-04T18:14:29.047Z,99142.69
2023-02-04T18:17:01.164Z,99153.22
2023-02-04T18:19:37.735Z,99155.63
2023-02-04T18:22:16.809Z,99155.41
2023-02-04T18:24:51.249Z,99158.06
2023-02-04T18:27:25.040Z,99152.63
2023-02-04T18:29:56.282Z,99158.91
2023-02-04T18:32:44.579Z,99153.25
2023-02-04T18:35:39.290Z,99153.53
2023-02-04T18:38:26.301Z,99168.28
2023-02-04T18:41:23.237Z,99171.78
2023-02-04T18:44:06.218Z,99172.31
2023-02-04T18:46:39.859Z,99176.34
2023-02-04T18:49:29.761Z,99183.94
2023-02-04T18:51:59.654Z,99172.84
2023-02-04T18:54:34.506Z,99186.31
2023-02-04T18:57:37.023Z,99196.50
2023-02-04T19:00:27.835Z,99201.06
2023-02-04T19:03:25.382Z,99204.84
2023-02-04T19:05:55.498Z,99202.06
2023-02-04T19:08:44.240Z,99208.38
2023-02-04T19:11:43.532Z,99213.22
2023-02-04T19:14:33.054Z,99210.16
2023-02-04T19:17:29.319Z,99212.81
2023-02-04T19:20:08.439Z,99212.72
2023-02-04T19:22:54.150Z,99211.91
2023-02-04T19:25:37.934Z,99207.88
2023-02-04T19:28:19.565Z,99215.00
2023-02-04T19:30:51.118Z,99221.56
2023-02-04T19:33:40.165Z,99235.28
2023-02-04T19:36:38.491Z,99237.00
2023-02-04T19:39:40.224Z,99244.56
2023-02-04T19:42:23.765Z,99252.78
2023-02-04T19:44:54.057Z,99243.94
2023-02-04T19:47:46.409Z,99249.69
2023-02-04T19:50:25.592Z,99245.16
2023-02-04T19:53:03.397Z,99247.06
2023-02-04T19:55:47.514Z,99241.06
2023-02-04T19:58:39.439Z,99240.75
2023-02-04T20:01:19.758Z,99246.41
2023-02-04T20:03:51.034Z,99243.72
2023-02-04T20:06:36.812Z,99252.53
2023-02-04T20:09:24.945Z,99253.03
2023-02-04T20:12:08.376Z,99252.78
2023-02-04T20:15:08.928Z,99252.31
2023-02-04T20:17:49.211Z,99252.88
2023-02-04T20:20:29.618Z,99261.31
2023-02-04T20:23:02.741Z,99254.16
2023-02-04T20:25:45.770Z,99256.88
2023-02-04T20:28:41.494Z,99262.50
2023-02-04T20:31:25.293Z,99271.31
2023-02-04T20:33:58.038Z,99259.94
2023-02-04T20:36:45.823Z,99278.22
2023-02-04T20:39:37.103Z,99274.16
2023-02-04T20:42:34.499Z,99281.94
2023-02-04T20:45:35.997Z,99275.16
2023-02-04T20:48:31.966Z,99276.91
2023-02-04T20:51:03.956Z,99287.91
2023-02-04T20:53:54.059Z,99284.06
2023-02-04T20:56:37.491Z,99292.16
2023-02-04T20:59:25.019Z,99289.00
2023-02-04T21:01:54.167Z,99287.78
2023-02-04T21:04:37.113Z,99291.59
2023-02-04T21:07:17.987Z,99292.38
2023-02-04T21:09:46.717Z,99287.81
2023-02-04T21:12:14.673Z,99290.97
2023-02-04T21:14:47.444Z,99289.97
2023-02-04T21:17:14.876Z,99287.03
2023-02-04T21:19:42.295Z,99285.38
2023-02-04T21:22:10.305Z,99287.34
2023-02-04T21:24:37.849Z,99292.16
2023-02-04T21:27:05.558Z,99296.25
2023-02-04T21:29:34.502Z,99294.16
2023-02-04T21:32:04.553Z,99301.97
2023-02-04T21:34:32.542Z,99304.69
2023-02-04T21:37:00.145Z,99304.81
2023-02-04T21:39:27.744Z,99300.03
2023-02-04T21:42:10.119Z,99301.94
2023-02-04T21:44:38.823Z,99310.28
2023-02-04T21:47:06.468Z,99319.06
2023-02-04T21:49:33.978Z,99322.66
2023-02-04T21:52:02.021Z,99334.97
2023-02-04T21:54:30.499Z,99336.44
2023-02-04T21:57:02.367Z,99340.22
2023-02-04T21:59:31.610Z,99346.97
2023-02-04T22:01:59.292Z,99351.78
2023-02-04T22:04:27.020Z,99356.66
2023-02-04T22:06:55.968Z,99364.41
2023-02-04T22:09:23.403Z,99360.53
2023-02-04T22:11:50.837Z,99358.22
2023-02-04T22:14:19.317Z,99365.59
2023-02-04T22:16:47.199Z,99370.09
2023-02-04T22:19:14.656Z,99368.94
2023-02-04T22:21:42.102Z,99377.78
2023-02-04T22:24:30.774Z,99362.59
2023-02-04T22:26:59.385Z,99359.81
2023-02-04T22:29:30.033Z,99359.00
2023-02-04T22:31:57.616Z,99360.56
2023-02-04T22:34:25.483Z,99362.44
2023-02-04T22:36:55.852Z,99364.53
2023-02-04T22:39:23.378Z,99356.47
2023-02-04T22:41:50.855Z,99354.63
2023-02-04T22:44:18.349Z,99357.00
2023-02-04T22:46:47.654Z,99364.66
2023-02-04T22:49:15.292Z,99355.78
2023-02-04T22:51:42.841Z,99365.91
2023-02-04T22:54:10.376Z,99365.81
2023-02-04T22:56:37.980Z,99360.81
2023-02-04T22:59:05.412Z,99370.56
2023-02-04T23:01:32.902Z,99368.00
2023-02-04T23:04:00.416Z,99370.31
2023-02-04T23:06:27.961Z,99372.97
2023-02-04T23:08:58.095Z,99381.00
2023-02-04T23:11:26.172Z,99370.84
2023-02-04T23:13:54.276Z,99373.78
2023-02-04T23:16:21.854Z,99380.50
2023-02-04T23:18:49.640Z,99381.31
2023-02-04T23:21:17.582Z,99382.59
2023-02-04T23:23:45.015Z,99386.25
2023-02-04T23:26:12.605Z,99377.44
2023-02-04T23:28:40.107Z,99379.78
2023-02-04T23:31:07.686Z,99388.84
2023-02-04T23:33:35.215Z,99399.25
2023-02-04T23:36:03.390Z,99402.31
2023-02-04T23:38:31.309Z,99405.16
2023-02-04T23:41:00.454Z,99414.59
2023-02-04T23:43:28.486Z,99416.84
2023-02-04T23:45:57.308Z,99441.25
2023-02-04T23:48:25.277Z,99439.19
2023-02-04T23:50:52.955Z,99450.84
2023-02-04T23:53:20.472Z,99450.09
2023-02-04T23:55:50.941Z,99450.91
2023-02-04T23:58:18.571Z,99453.78
